createdAt,value
2018-07-25T00:00:12.577Z,101051.18
2018-07-25T00:01:18.330Z,101052.25
2018-07-25T00:02:23.848Z,101050.94
2018-07-25T00:03:29.298Z,101051.27
2018-07-25T00:04:34.716Z,101045.81
2018-07-25T00:05:40.141Z,101052.36
2018-07-25T00:06:45.604Z,101053.38
2018-07-25T00:07:51.144Z,101050.64
2018-07-25T00:08:56.683Z,101048.25
2018-07-25T00:10:02.146Z,101047.02
2018-07-25T00:11:07.625Z,101050.73
2018-07-25T00:12:13.126Z,101050.01
2018-07-25T00:13:18.873Z,101047.17
2018-07-25T00:14:24.435Z,101048.61
2018-07-25T00:15:29.884Z,101045.17
2018-07-25T00:16:35.801Z,101044.20
2018-07-25T00:17:41.275Z,101050.86
2018-07-25T00:18:47.147Z,101048.59
2018-07-25T00:19:52.881Z,101050.71
2018-07-25T00:20:58.578Z,101048.69
2018-07-25T00:22:03.993Z,101049.63
2018-07-25T00:23:09.560Z,101049.74
2018-07-25T00:24:15.019Z,101047.00
2018-07-25T00:25:20.466Z,101044.05
2018-07-25T00:26:25.956Z,101047.61
2018-07-25T00:27:31.419Z,101048.16
2018-07-25T00:28:36.853Z,101048.77
2018-07-25T00:29:42.296Z,101049.59
2018-07-25T00:30:47.812Z,101049.25
2018-07-25T00:31:53.347Z,101050.05
2018-07-25T00:32:58.790Z,101047.78
2018-07-25T00:34:04.203Z,101045.27
2018-07-25T00:35:09.665Z,101048.02
2018-07-25T00:36:15.107Z,101044.55
2018-07-25T00:37:20.531Z,101048.02
2018-07-25T00:38:26.057Z,101044.09
2018-07-25T00:39:31.600Z,101049.06
2018-07-25T00:40:37.006Z,101038.81
2018-07-25T00:41:42.481Z,101036.76
2018-07-25T00:42:47.925Z,101038.68
2018-07-25T00:43:53.406Z,101042.37
2018-07-25T00:44:58.849Z,101042.47
2018-07-25T00:46:04.372Z,101038.44
2018-07-25T00:47:09.816Z,101035.83
2018-07-25T00:48:15.241Z,101032.56
2018-07-25T00:49:20.722Z,101036.00
2018-07-25T00:50:26.421Z,101033.60
2018-07-25T00:51:32.021Z,101043.03
2018-07-25T00:52:37.452Z,101035.60
2018-07-25T00:53:42.921Z,101035.12
2018-07-25T00:54:48.450Z,101037.50
2018-07-25T00:55:53.930Z,101038.22
2018-07-25T00:56:59.358Z,101034.53
2018-07-25T00:58:04.840Z,101037.47
2018-07-25T00:59:10.621Z,101039.98
2018-07-25T01:00:17.111Z,101037.26
2018-07-25T01:01:22.607Z,101032.13
2018-07-25T01:02:28.090Z,101032.34
2018-07-25T01:03:33.569Z,101034.86
2018-07-25T01:04:39.054Z,101033.75
2018-07-25T01:05:44.544Z,101029.11
2018-07-25T01:06:50.351Z,101031.75
2018-07-25T01:07:55.809Z,101037.84
2018-07-25T01:09:01.231Z,101035.65
2018-07-25T01:10:06.913Z,101031.52
2018-07-25T01:11:12.356Z,101039.16
2018-07-25T01:12:17.881Z,101035.81
2018-07-25T01:13:23.596Z,101034.27
2018-07-25T01:14:29.030Z,101036.27
2018-07-25T01:15:34.481Z,101042.36
2018-07-25T01:16:39.893Z,101039.84
2018-07-25T01:17:45.413Z,101037.95
2018-07-25T01:18:50.891Z,101036.38
2018-07-25T01:19:56.382Z,101036.27
2018-07-25T01:21:01.829Z,101037.20
2018-07-25T01:22:07.216Z,101034.69
2018-07-25T01:23:12.720Z,101037.17
2018-07-25T01:24:18.209Z,101042.23
2018-07-25T01:25:23.903Z,101034.00
2018-07-25T01:26:29.380Z,101037.96
2018-07-25T01:27:34.853Z,101037.58
2018-07-25T01:28:40.312Z,101037.48
2018-07-25T01:29:45.836Z,101035.45
2018-07-25T01:30:51.409Z,101040.47
2018-07-25T01:31:56.858Z,101040.61
2018-07-25T01:33:02.296Z,101039.20
2018-07-25T01:34:07.728Z,101045.25
2018-07-25T01:35:13.577Z,101044.53
2018-07-25T01:36:19.062Z,101044.77
2018-07-25T01:37:24.739Z,101041.67
2018-07-25T01:38:30.186Z,101042.74
2018-07-25T01:39:35.621Z,101051.41
2018-07-25T01:40:41.087Z,101049.87
2018-07-25T01:41:46.540Z,101047.25
2018-07-25T01:42:52.021Z,101044.13
2018-07-25T01:43:57.518Z,101043.54
2018-07-25T01:45:02.932Z,101047.80
2018-07-25T01:46:08.376Z,101046.73
2018-07-25T01:47:13.883Z,101040.34
2018-07-25T01:48:19.329Z,101044.05
2018-07-25T01:49:25.065Z,101046.19
2018-07-25T01:50:30.489Z,101042.27
2018-07-25T01:51:35.929Z,101041.67
2018-07-25T01:52:41.448Z,101044.56
2018-07-25T01:53:46.893Z,101042.56
2018-07-25T01:54:52.390Z,101045.29
2018-07-25T01:55:57.829Z,101036.61
2018-07-25T01:57:03.241Z,101043.13
2018-07-25T01:58:08.772Z,101044.05
2018-07-25T01:59:14.253Z,101036.89
2018-07-25T02:00:19.775Z,101040.81
2018-07-25T02:01:25.359Z,101037.86
2018-07-25T02:02:30.760Z,101036.48
2018-07-25T02:03:36.180Z,101036.63
2018-07-25T02:04:41.556Z,101035.93
2018-07-25T02:05:47.036Z,101040.06
2018-07-25T02:06:52.528Z,101035.73
2018-07-25T02:07:58.097Z,101035.48
2018-07-25T02:09:03.850Z,101034.24
2018-07-25T02:10:09.388Z,101035.03
2018-07-25T02:11:14.804Z,101033.04
2018-07-25T02:12:20.292Z,101027.44
2018-07-25T02:13:26.105Z,101034.11
2018-07-25T02:14:31.519Z,101037.06
2018-07-25T02:15:37.003Z,101034.55
2018-07-25T02:16:42.425Z,101034.11
2018-07-25T02:17:47.874Z,101043.02
2018-07-25T02:18:53.360Z,101034.55
2018-07-25T02:19:58.815Z,101036.34
2018-07-25T02:21:04.260Z,101034.34
2018-07-25T02:22:09.665Z,101034.24
2018-07-25T02:23:15.103Z,101036.27
2018-07-25T02:24:20.570Z,101036.00
2018-07-25T02:25:26.034Z,101034.20
2018-07-25T02:26:31.473Z,101034.41
2018-07-25T02:27:36.973Z,101034.30
2018-07-25T02:28:42.388Z,101036.92
2018-07-25T02:29:47.481Z,101038.47
2018-07-25T02:30:52.959Z,101036.86
2018-07-25T02:31:58.384Z,101041.47
2018-07-25T02:33:03.855Z,101039.47
2018-07-25T02:34:14.553Z,101040.41
2018-07-25T02:35:20.025Z,101040.67
2018-07-25T02:36:25.505Z,101043.39
2018-07-25T02:37:30.976Z,101047.21
2018-07-25T02:38:36.422Z,101047.08
2018-07-25T02:39:41.862Z,101040.55
2018-07-25T02:40:47.709Z,101046.01
2018-07-25T02:41:53.182Z,101046.01
2018-07-25T02:42:58.602Z,101040.20
2018-07-25T02:44:03.997Z,101045.05
2018-07-25T02:45:09.474Z,101044.59
2018-07-25T02:46:15.237Z,101047.17
2018-07-25T02:47:20.701Z,101051.78
2018-07-25T02:48:26.185Z,101045.69
2018-07-25T02:49:31.606Z,101051.20
2018-07-25T02:50:37.073Z,101047.27
2018-07-25T02:51:42.661Z,101047.52
2018-07-25T02:52:48.485Z,101051.30
2018-07-25T02:53:53.949Z,101046.13
2018-07-25T02:54:59.405Z,101040.45
2018-07-25T02:56:05.265Z,101044.64
2018-07-25T02:57:11.053Z,101046.06
2018-07-25T02:58:16.553Z,101048.57
2018-07-25T02:59:22.770Z,101052.59
2018-07-25T03:00:28.229Z,101052.55
2018-07-25T03:01:34.189Z,101056.66
2018-07-25T03:02:39.658Z,101055.50
2018-07-25T03:03:45.069Z,101060.63
2018-07-25T03:04:50.915Z,101059.70
2018-07-25T03:05:56.357Z,101055.48
2018-07-25T03:07:01.436Z,101058.55
2018-07-25T03:08:07.153Z,101056.20
2018-07-25T03:09:12.739Z,101059.55
2018-07-25T03:10:18.380Z,101060.75
2018-07-25T03:11:23.869Z,101058.27
2018-07-25T03:12:29.296Z,101057.34
2018-07-25T03:13:34.728Z,101056.86
2018-07-25T03:14:40.127Z,101054.58
2018-07-25T03:15:45.609Z,101052.79
2018-07-25T03:16:51.066Z,101056.33
2018-07-25T03:17:56.559Z,101057.87
2018-07-25T03:19:02.003Z,101055.45
2018-07-25T03:20:07.457Z,101058.51
2018-07-25T03:21:12.922Z,101049.36
2018-07-25T03:22:18.453Z,101051.59
2018-07-25T03:23:24.136Z,101052.08
2018-07-25T03:24:29.590Z,101051.69
2018-07-25T03:25:35.013Z,101049.19
2018-07-25T03:26:40.465Z,101054.64
2018-07-25T03:27:45.876Z,101050.48
2018-07-25T03:28:51.896Z,101052.75
2018-07-25T03:29:57.721Z,101051.55
2018-07-25T03:31:03.204Z,101049.36
2018-07-25T03:32:08.708Z,101050.14
2018-07-25T03:33:14.118Z,101052.02
2018-07-25T03:34:19.617Z,101055.22
2018-07-25T03:35:25.105Z,101053.15
2018-07-25T03:36:30.557Z,101057.16
2018-07-25T03:37:36.141Z,101054.54
2018-07-25T03:38:41.638Z,101056.30
2018-07-25T03:39:47.045Z,101058.08
2018-07-25T03:40:52.557Z,101056.44
2018-07-25T03:41:57.981Z,101062.14
2018-07-25T03:43:03.813Z,101055.61
2018-07-25T03:44:09.270Z,101058.70
2018-07-25T03:45:14.766Z,101061.52
2018-07-25T03:46:20.340Z,101067.95
2018-07-25T03:47:25.837Z,101068.33
2018-07-25T03:48:31.285Z,101069.05
2018-07-25T03:49:36.792Z,101068.09
2018-07-25T03:50:42.268Z,101075.30
2018-07-25T03:51:47.776Z,101075.01
2018-07-25T03:52:53.255Z,101081.69
2018-07-25T03:53:58.675Z,101075.98
2018-07-25T03:55:04.158Z,101082.65
2018-07-25T03:56:09.617Z,101076.02
2018-07-25T03:57:15.141Z,101081.78
2018-07-25T03:58:20.802Z,101080.63
2018-07-25T03:59:26.290Z,101077.09
2018-07-25T04:00:31.734Z,101074.09
2018-07-25T04:01:37.193Z,101082.11
2018-07-25T04:02:42.779Z,101081.58
2018-07-25T04:03:48.182Z,101085.08
2018-07-25T04:04:53.696Z,101083.19
2018-07-25T04:05:59.124Z,101084.15
2018-07-25T04:07:04.571Z,101079.85
2018-07-25T04:08:10.066Z,101078.73
2018-07-25T04:09:15.520Z,101078.55
2018-07-25T04:10:20.985Z,101078.16
2018-07-25T04:11:26.445Z,101082.59
2018-07-25T04:12:31.905Z,101086.04
2018-07-25T04:13:37.325Z,101083.83
2018-07-25T04:14:42.801Z,101079.80
2018-07-25T04:15:49.468Z,101082.22
2018-07-25T04:16:54.969Z,101084.05
2018-07-25T04:18:00.445Z,101089.28
2018-07-25T04:19:06.045Z,101082.42
2018-07-25T04:20:12.208Z,101081.02
2018-07-25T04:21:17.650Z,101086.97
2018-07-25T04:22:23.360Z,101082.59
2018-07-25T04:23:28.908Z,101084.05
2018-07-25T04:24:34.385Z,101085.61
2018-07-25T04:25:39.811Z,101083.65
2018-07-25T04:26:45.249Z,101089.36
2018-07-25T04:27:50.709Z,101083.65
2018-07-25T04:28:56.146Z,101086.16
2018-07-25T04:30:01.570Z,101089.08
2018-07-25T04:31:07.364Z,101088.65
2018-07-25T04:32:12.912Z,101093.35
2018-07-25T04:33:18.980Z,101094.31
2018-07-25T04:34:24.620Z,101104.37
2018-07-25T04:35:30.062Z,101100.12
2018-07-25T04:36:35.472Z,101100.27
2018-07-25T04:37:41.369Z,101102.64
2018-07-25T04:38:46.795Z,101099.58
2018-07-25T04:39:52.644Z,101098.28
2018-07-25T04:40:58.149Z,101102.30
2018-07-25T04:42:03.609Z,101095.81
2018-07-25T04:43:09.109Z,101100.12
2018-07-25T04:44:15.050Z,101096.11
2018-07-25T04:45:20.545Z,101104.58
2018-07-25T04:46:26.124Z,101106.16
2018-07-25T04:47:31.501Z,101111.64
2018-07-25T04:48:36.924Z,101105.48
2018-07-25T04:49:42.385Z,101106.47
2018-07-25T04:50:47.800Z,101106.47
2018-07-25T04:51:53.265Z,101106.31
2018-07-25T04:52:58.761Z,101108.20
2018-07-25T04:54:03.900Z,101109.13
2018-07-25T04:55:09.228Z,101110.44
2018-07-25T04:56:14.755Z,101110.44
2018-07-25T04:57:20.135Z,101113.67
2018-07-25T04:58:26.218Z,101112.02
2018-07-25T04:59:31.766Z,101114.45
2018-07-25T05:00:37.168Z,101118.02
2018-07-25T05:01:42.584Z,101118.37
2018-07-25T05:02:48.164Z,101124.13
2018-07-25T05:03:53.929Z,101118.80
2018-07-25T05:04:59.449Z,101127.95
2018-07-25T05:06:04.912Z,101128.78
2018-07-25T05:07:10.427Z,101128.67
2018-07-25T05:08:15.784Z,101132.20
2018-07-25T05:09:21.282Z,101123.44
2018-07-25T05:10:26.786Z,101134.44
2018-07-25T05:11:32.228Z,101133.91
2018-07-25T05:12:37.733Z,101136.27
2018-07-25T05:13:42.808Z,101135.54
2018-07-25T05:14:47.841Z,101140.58
2018-07-25T05:15:53.218Z,101137.72
2018-07-25T05:16:58.741Z,101136.80
2018-07-25T05:18:04.265Z,101143.67
2018-07-25T05:19:09.752Z,101140.48
2018-07-25T05:20:15.230Z,101137.20
2018-07-25T05:21:20.785Z,101135.69
2018-07-25T05:22:26.246Z,101135.31
2018-07-25T05:23:31.696Z,101139.41
2018-07-25T05:24:37.581Z,101138.45
2018-07-25T05:25:43.037Z,101137.34
2018-07-25T05:26:48.526Z,101143.15
2018-07-25T05:27:54.035Z,101143.25
2018-07-25T05:28:59.455Z,101142.47
2018-07-25T05:30:05.340Z,101145.34
2018-07-25T05:31:10.768Z,101146.47
2018-07-25T05:32:16.186Z,101142.77
2018-07-25T05:33:21.654Z,101144.91
2018-07-25T05:34:27.097Z,101145.48
2018-07-25T05:35:32.868Z,101142.39
2018-07-25T05:36:38.337Z,101138.67
2018-07-25T05:37:43.766Z,101135.07
2018-07-25T05:38:49.317Z,101137.78
2018-07-25T05:39:54.859Z,101139.34
2018-07-25T05:41:00.296Z,101142.43
2018-07-25T05:42:05.729Z,101140.30
2018-07-25T05:43:11.145Z,101139.81
2018-07-25T05:44:16.564Z,101141.09
2018-07-25T05:45:21.868Z,101146.12
2018-07-25T05:46:27.245Z,101139.73
2018-07-25T05:47:32.362Z,101139.55
2018-07-25T05:48:37.797Z,101142.31
2018-07-25T05:49:43.243Z,101147.44
2018-07-25T05:50:48.698Z,101145.66
2018-07-25T05:51:54.256Z,101144.83
2018-07-25T05:52:59.909Z,101138.44
2018-07-25T05:54:05.392Z,101140.80
2018-07-25T05:55:10.800Z,101139.48
2018-07-25T05:56:16.188Z,101136.59
2018-07-25T05:57:21.668Z,101137.74
2018-07-25T05:58:27.209Z,101141.47
2018-07-25T05:59:32.656Z,101141.05
2018-07-25T06:00:38.123Z,101146.71
2018-07-25T06:01:43.681Z,101144.73
2018-07-25T06:02:49.408Z,101146.28
2018-07-25T06:03:54.870Z,101152.53
2018-07-25T06:05:00.470Z,101149.34
2018-07-25T06:06:06.407Z,101153.26
2018-07-25T06:07:11.854Z,101149.01
2018-07-25T06:08:17.372Z,101151.51
2018-07-25T06:09:22.840Z,101149.57
2018-07-25T06:10:28.383Z,101148.59
2018-07-25T06:11:33.868Z,101155.37
2018-07-25T06:12:39.296Z,101155.22
2018-07-25T06:13:44.737Z,101160.44
2018-07-25T06:14:50.200Z,101164.61
2018-07-25T06:15:55.597Z,101164.50
2018-07-25T06:17:01.426Z,101163.09
2018-07-25T06:18:06.877Z,101163.03
2018-07-25T06:19:12.313Z,101163.31
2018-07-25T06:20:17.785Z,101161.56
2018-07-25T06:21:23.328Z,101163.77
2018-07-25T06:22:29.176Z,101162.39
2018-07-25T06:23:34.620Z,101160.19
2018-07-25T06:24:40.221Z,101154.58
2018-07-25T06:25:45.687Z,101157.67
2018-07-25T06:26:51.997Z,101155.19
2018-07-25T06:27:57.673Z,101158.05
2018-07-25T06:29:03.059Z,101164.08
2018-07-25T06:30:08.524Z,101159.36
2018-07-25T06:31:13.986Z,101158.91
2018-07-25T06:32:19.343Z,101159.66
2018-07-25T06:33:26.197Z,101160.66
2018-07-25T06:34:31.608Z,101164.34
2018-07-25T06:35:37.084Z,101168.41
2018-07-25T06:36:42.525Z,101165.34
2018-07-25T06:37:47.952Z,101171.70
2018-07-25T06:38:53.503Z,101173.59
2018-07-25T06:39:58.991Z,101175.52
2018-07-25T06:41:04.414Z,101176.03
2018-07-25T06:42:09.812Z,101178.41
2018-07-25T06:43:15.307Z,101186.27
2018-07-25T06:44:20.771Z,101183.20
2018-07-25T06:45:26.279Z,101185.56
2018-07-25T06:46:31.678Z,101187.49
2018-07-25T06:47:37.317Z,101183.94
2018-07-25T06:48:42.724Z,101181.45
2018-07-25T06:49:48.148Z,101186.69
2018-07-25T06:50:53.696Z,101187.17
2018-07-25T06:51:59.123Z,101188.41
2018-07-25T06:53:04.966Z,101189.02
2018-07-25T06:54:10.385Z,101192.25
2018-07-25T06:55:15.812Z,101193.67
2018-07-25T06:56:21.273Z,101194.98
2018-07-25T06:57:26.759Z,101189.63
2018-07-25T06:58:32.440Z,101199.50
2018-07-25T06:59:38.073Z,101193.08
2018-07-25T07:00:43.493Z,101195.48
2018-07-25T07:01:48.612Z,101189.44
2018-07-25T07:02:53.967Z,101190.52
2018-07-25T07:03:59.856Z,101186.88
2018-07-25T07:05:05.737Z,101188.09
2018-07-25T07:06:11.191Z,101191.55
2018-07-25T07:07:16.593Z,101183.56
2018-07-25T07:08:22.067Z,101192.75
2018-07-25T07:09:27.476Z,101180.02
2018-07-25T07:10:32.925Z,101187.02
2018-07-25T07:11:38.441Z,101186.08
2018-07-25T07:12:43.909Z,101183.67
2018-07-25T07:13:49.743Z,101189.18
2018-07-25T07:14:55.588Z,101186.57
2018-07-25T07:16:01.081Z,101194.46
2018-07-25T07:17:06.538Z,101196.25
2018-07-25T07:18:11.932Z,101191.25
2018-07-25T07:19:17.335Z,101195.48
2018-07-25T07:20:23.028Z,101195.02
2018-07-25T07:21:28.478Z,101195.84
2018-07-25T07:22:33.934Z,101194.67
2018-07-25T07:23:39.347Z,101199.07
2018-07-25T07:24:44.786Z,101201.73
2018-07-25T07:25:50.423Z,101202.78
2018-07-25T07:26:55.841Z,101204.24
2018-07-25T07:28:01.266Z,101195.40
2018-07-25T07:29:07.841Z,101197.20
2018-07-25T07:30:13.288Z,101211.86
2018-07-25T07:31:18.761Z,101198.73
2018-07-25T07:32:24.273Z,101205.18
2018-07-25T07:33:29.762Z,101208.52
2018-07-25T07:34:35.266Z,101205.17
2018-07-25T07:35:40.701Z,101205.21
2018-07-25T07:36:46.110Z,101208.45
2018-07-25T07:37:51.559Z,101208.79
2018-07-25T07:38:57.077Z,101207.00
2018-07-25T07:40:02.521Z,101204.85
2018-07-25T07:41:08.010Z,101202.72
2018-07-25T07:42:13.466Z,101202.47
2018-07-25T07:43:18.889Z,101208.08
2018-07-25T07:44:24.436Z,101196.25
2018-07-25T07:45:29.863Z,101200.64
2018-07-25T07:46:35.629Z,101200.28
2018-07-25T07:47:40.813Z,101198.62
2018-07-25T07:48:46.142Z,101200.38
2018-07-25T07:49:51.645Z,101204.17
2018-07-25T07:50:57.113Z,101198.59
2018-07-25T07:52:02.592Z,101202.51
2018-07-25T07:53:08.112Z,101206.33
2018-07-25T07:54:13.522Z,101202.64
2018-07-25T07:55:19.358Z,101202.28
2018-07-25T07:56:24.813Z,101205.38
2018-07-25T07:57:30.248Z,101206.06
2018-07-25T07:58:35.697Z,101205.19
2018-07-25T07:59:41.130Z,101208.58
2018-07-25T08:00:46.608Z,101205.06
2018-07-25T08:01:52.328Z,101205.73
2018-07-25T08:02:57.730Z,101209.27
2018-07-25T08:04:03.196Z,101210.33
2018-07-25T08:05:08.661Z,101212.95
2018-07-25T08:06:14.128Z,101210.42
2018-07-25T08:07:19.580Z,101212.72
2018-07-25T08:08:25.234Z,101208.98
2018-07-25T08:09:30.638Z,101214.86
2018-07-25T08:10:36.117Z,101211.38
2018-07-25T08:11:41.888Z,101211.03
2018-07-25T08:12:47.356Z,101207.42
2018-07-25T08:13:52.870Z,101209.89
2018-07-25T08:14:58.285Z,101211.62
2018-07-25T08:16:03.684Z,101218.05
2018-07-25T08:17:09.494Z,101213.31
2018-07-25T08:18:14.925Z,101216.19
2018-07-25T08:19:20.447Z,101219.35
2018-07-25T08:20:26.036Z,101218.24
2018-07-25T08:21:31.515Z,101214.79
2018-07-25T08:22:36.983Z,101219.20
2018-07-25T08:23:43.543Z,101220.22
2018-07-25T08:24:48.947Z,101218.08
2018-07-25T08:25:54.438Z,101221.08
2018-07-25T08:26:59.868Z,101218.95
2018-07-25T08:28:05.378Z,101215.61
2018-07-25T08:29:10.793Z,101218.33
2018-07-25T08:30:16.209Z,101214.05
2018-07-25T08:31:21.809Z,101213.47
2018-07-25T08:32:27.421Z,101213.42
2018-07-25T08:33:32.968Z,101216.48
2018-07-25T08:34:38.451Z,101215.56
2018-07-25T08:35:43.841Z,101221.80
2018-07-25T08:36:49.457Z,101219.36
2018-07-25T08:37:54.898Z,101218.41
2018-07-25T08:39:00.312Z,101216.80
2018-07-25T08:40:06.435Z,101212.03
2018-07-25T08:41:11.972Z,101215.30
2018-07-25T08:42:17.474Z,101214.91
2018-07-25T08:43:22.912Z,101215.22
2018-07-25T08:44:28.437Z,101215.63
2018-07-25T08:45:33.543Z,101209.73
2018-07-25T08:46:38.853Z,101214.08
2018-07-25T08:47:44.257Z,101218.08
2018-07-25T08:48:49.381Z,101217.45
2018-07-25T08:49:54.933Z,101215.00
2018-07-25T08:51:00.400Z,101216.69
2018-07-25T08:52:05.965Z,101218.43
2018-07-25T08:53:11.431Z,101215.72
2018-07-25T08:54:16.873Z,101218.23
2018-07-25T08:55:22.405Z,101214.27
2018-07-25T08:56:27.853Z,101219.28
2018-07-25T08:57:33.282Z,101211.56
2018-07-25T08:58:38.757Z,101211.80
2018-07-25T08:59:44.183Z,101213.81
2018-07-25T09:00:50.081Z,101211.80
2018-07-25T09:01:55.558Z,101215.27
2018-07-25T09:03:00.975Z,101220.14
2018-07-25T09:04:06.663Z,101219.15
2018-07-25T09:05:12.155Z,101214.98
2018-07-25T09:06:17.619Z,101215.81
2018-07-25T09:07:23.124Z,101222.22
2018-07-25T09:08:28.549Z,101212.20
2018-07-25T09:09:34.020Z,101216.16
2018-07-25T09:10:39.747Z,101219.77
2018-07-25T09:11:45.247Z,101219.14
2018-07-25T09:12:50.778Z,101213.51
2018-07-25T09:13:56.899Z,101216.28
2018-07-25T09:15:02.335Z,101216.01
2018-07-25T09:16:07.797Z,101215.38
2018-07-25T09:17:13.288Z,101214.25
2018-07-25T09:18:18.817Z,101215.16
2018-07-25T09:19:24.260Z,101212.92
2018-07-25T09:20:29.700Z,101219.02
2018-07-25T09:21:34.841Z,101211.33
2018-07-25T09:22:40.219Z,101213.83
2018-07-25T09:23:45.673Z,101214.02
2018-07-25T09:24:51.153Z,101208.72
2018-07-25T09:25:56.630Z,101208.05
2018-07-25T09:27:02.101Z,101206.91
2018-07-25T09:28:07.545Z,101205.39
2018-07-25T09:29:13.012Z,101207.91
2018-07-25T09:30:18.838Z,101207.20
2018-07-25T09:31:24.728Z,101215.33
2018-07-25T09:32:30.185Z,101212.69
2018-07-25T09:33:35.622Z,101200.74
2018-07-25T09:34:41.481Z,101212.64
2018-07-25T09:35:46.917Z,101210.49
2018-07-25T09:36:52.378Z,101212.64
2018-07-25T09:37:57.890Z,101207.95
2018-07-25T09:39:03.475Z,101206.96
2018-07-25T09:40:08.929Z,101206.75
2018-07-25T09:41:14.404Z,101209.25
2018-07-25T09:42:19.834Z,101213.33
2018-07-25T09:43:25.344Z,101212.05
2018-07-25T09:44:30.754Z,101203.33
2018-07-25T09:45:36.258Z,101206.36
2018-07-25T09:46:41.785Z,101203.47
2018-07-25T09:47:47.077Z,101206.25
2018-07-25T09:48:52.720Z,101204.94
2018-07-25T09:49:58.154Z,101207.86
2018-07-25T09:51:03.722Z,101205.94
2018-07-25T09:52:09.207Z,101209.65
2018-07-25T09:53:14.714Z,101207.03
2018-07-25T09:54:20.070Z,101207.80
2018-07-25T09:55:25.617Z,101210.56
2018-07-25T09:56:31.056Z,101212.27
2018-07-25T09:57:36.884Z,101209.65
2018-07-25T09:58:42.306Z,101210.32
2018-07-25T09:59:47.745Z,101207.41
2018-07-25T10:00:53.281Z,101210.43
2018-07-25T10:01:58.729Z,101211.10
2018-07-25T10:03:04.285Z,101210.81
2018-07-25T10:04:09.714Z,101205.16
2018-07-25T10:05:15.223Z,101203.66
2018-07-25T10:06:20.702Z,101210.72
2018-07-25T10:07:25.945Z,101209.56
2018-07-25T10:08:31.236Z,101207.59
2018-07-25T10:09:36.700Z,101203.32
2018-07-25T10:10:42.405Z,101206.58
2018-07-25T10:11:47.879Z,101207.77
2018-07-25T10:12:53.528Z,101210.51
2018-07-25T10:13:58.937Z,101218.53
2018-07-25T10:15:04.520Z,101209.83
2018-07-25T10:16:10.017Z,101214.09
2018-07-25T10:17:15.489Z,101209.67
2018-07-25T10:18:21.013Z,101214.47
2018-07-25T10:19:26.602Z,101217.13
2018-07-25T10:20:32.120Z,101217.81
2018-07-25T10:21:37.634Z,101211.38
2018-07-25T10:22:43.093Z,101215.67
2018-07-25T10:23:48.879Z,101220.86
2018-07-25T10:24:54.359Z,101215.66
2018-07-25T10:25:59.888Z,101215.02
2018-07-25T10:27:05.347Z,101214.56
2018-07-25T10:28:10.772Z,101218.95
2018-07-25T10:29:16.233Z,101220.31
2018-07-25T10:30:22.249Z,101212.91
2018-07-25T10:31:27.730Z,101223.94
2018-07-25T10:32:33.225Z,101221.37
2018-07-25T10:33:38.618Z,101215.12
2018-07-25T10:34:44.169Z,101216.48
2018-07-25T10:35:49.592Z,101213.52
2018-07-25T10:36:55.036Z,101224.77
2018-07-25T10:38:00.474Z,101222.13
2018-07-25T10:39:09.296Z,101212.87
2018-07-25T10:40:14.645Z,101216.70
2018-07-25T10:41:20.112Z,101220.00
2018-07-25T10:42:25.532Z,101215.81
2018-07-25T10:43:30.973Z,101211.37
2018-07-25T10:44:36.484Z,101217.00
2018-07-25T10:45:42.050Z,101214.62
2018-07-25T10:46:47.462Z,101215.81
2018-07-25T10:47:52.975Z,101222.27
2018-07-25T10:48:58.825Z,101219.33
2018-07-25T10:50:05.057Z,101221.53
2018-07-25T10:51:10.512Z,101219.23
2018-07-25T10:52:15.928Z,101217.99
2018-07-25T10:53:21.472Z,101214.99
2018-07-25T10:54:26.659Z,101218.80
2018-07-25T10:55:32.042Z,101222.30
2018-07-25T10:56:37.448Z,101216.69
2018-07-25T10:57:42.897Z,101222.86
2018-07-25T10:58:48.284Z,101223.03
2018-07-25T10:59:53.890Z,101219.91
2018-07-25T11:00:59.356Z,101215.63
2018-07-25T11:02:04.934Z,101235.46
2018-07-25T11:03:10.293Z,101225.94
2018-07-25T11:04:15.744Z,101224.77
2018-07-25T11:05:21.248Z,101227.80
2018-07-25T11:06:26.789Z,101229.93
2018-07-25T11:07:32.246Z,101229.27
2018-07-25T11:08:37.648Z,101230.59
2018-07-25T11:09:43.155Z,101228.91
2018-07-25T11:10:48.813Z,101228.53
2018-07-25T11:11:54.246Z,101231.40
2018-07-25T11:12:59.719Z,101220.66
2018-07-25T11:14:05.262Z,101225.02
2018-07-25T11:15:10.725Z,101215.12
2018-07-25T11:16:16.410Z,101225.52
2018-07-25T11:17:22.442Z,101235.97
2018-07-25T11:18:27.927Z,101227.50
2018-07-25T11:19:33.378Z,101226.33
2018-07-25T11:20:38.798Z,101232.66
2018-07-25T11:21:44.279Z,101230.51
2018-07-25T11:22:49.781Z,101230.16
2018-07-25T11:23:55.206Z,101229.53
2018-07-25T11:25:00.666Z,101227.58
2018-07-25T11:26:06.115Z,101228.78
2018-07-25T11:27:11.682Z,101234.59
2018-07-25T11:28:17.112Z,101236.10
2018-07-25T11:29:22.867Z,101228.64
2018-07-25T11:30:28.415Z,101223.41
2018-07-25T11:31:33.805Z,101225.39
2018-07-25T11:32:39.257Z,101224.18
2018-07-25T11:33:45.049Z,101219.27
2018-07-25T11:34:50.565Z,101218.33
2018-07-25T11:35:56.115Z,101215.06
2018-07-25T11:37:01.590Z,101227.19
2018-07-25T11:38:07.031Z,101228.32
2018-07-25T11:39:13.994Z,101222.86
2018-07-25T11:40:19.482Z,101222.80
2018-07-25T11:41:24.988Z,101223.23
2018-07-25T11:42:30.380Z,101217.85
2018-07-25T11:43:35.867Z,101218.98
2018-07-25T11:44:41.225Z,101225.30
2018-07-25T11:45:46.705Z,101219.86
2018-07-25T11:46:52.196Z,101218.28
2018-07-25T11:47:57.628Z,101223.39
2018-07-25T11:49:03.088Z,101220.23
2018-07-25T11:50:08.732Z,101228.12
2018-07-25T11:51:14.120Z,101226.44
2018-07-25T11:52:20.025Z,101223.83
2018-07-25T11:53:25.505Z,101214.90
2018-07-25T11:54:30.945Z,101219.85
2018-07-25T11:55:37.065Z,101219.70
2018-07-25T11:56:42.448Z,101224.50
2018-07-25T11:57:47.902Z,101220.71
2018-07-25T11:58:53.416Z,101222.82
2018-07-25T11:59:59.009Z,101220.72
2018-07-25T12:01:04.876Z,101214.40
2018-07-25T12:02:10.253Z,101215.60
2018-07-25T12:03:15.693Z,101212.95
2018-07-25T12:04:21.140Z,101212.60
2018-07-25T12:05:26.603Z,101211.31
2018-07-25T12:06:32.120Z,101212.31
2018-07-25T12:07:37.143Z,101215.19
2018-07-25T12:08:42.536Z,101205.73
2018-07-25T12:09:47.994Z,101216.84
2018-07-25T12:10:53.459Z,101213.69
2018-07-25T12:11:59.000Z,101206.72
2018-07-25T12:13:04.642Z,101210.03
2018-07-25T12:14:10.054Z,101213.22
2018-07-25T12:15:15.489Z,101197.61
2018-07-25T12:16:20.976Z,101211.56
2018-07-25T12:17:26.865Z,101204.27
2018-07-25T12:18:32.294Z,101209.41
2018-07-25T12:19:37.725Z,101211.05
2018-07-25T12:20:43.208Z,101196.46
2018-07-25T12:21:48.698Z,101201.43
2018-07-25T12:22:54.271Z,101203.74
2018-07-25T12:23:59.704Z,101198.09
2018-07-25T12:25:05.902Z,101195.95
2018-07-25T12:26:11.401Z,101200.38
2018-07-25T12:27:16.844Z,101191.91